sensor_id;sensor_type;location;lat;lon;timestamp;pressure;altitude;pressure_sealevel;temperature;humidity
55315;BME280;41619;42.816;23.226;2022-10-16T00:00:40;96169.78;;;5.93;69.98
55315;BME280;41619;42.816;23.226;2022-10-16T00:03:07;96169.91;;;5.88;70.43
55315;BME280;41619;42.816;23.226;2022-10-16T00:05:33;96178.22;;;5.83;70.35
55315;BME280;41619;42.816;23.226;2022-10-16T00:08:02;96181.88;;;5.78;70.06
55315;BME280;41619;42.816;23.226;2022-10-16T00:10:28;96178.81;;;5.71;70.39
55315;BME280;41619;42.816;23.226;2022-10-16T00:12:54;96189.50;;;5.67;70.00
55315;BME280;41619;42.816;23.226;2022-10-16T00:15:19;96190.16;;;5.64;70.65
55315;BME280;41619;42.816;23.226;2022-10-16T00:17:45;96183.44;;;5.62;70.41
55315;BME280;41619;42.816;23.226;2022-10-16T00:20:10;96187.59;;;5.59;70.72
55315;BME280;41619;42.816;23.226;2022-10-16T00:22:36;96189.78;;;5.57;70.67
55315;BME280;41619;42.816;23.226;2022-10-16T00:25:01;96187.72;;;5.54;70.64
55315;BME280;41619;42.816;23.226;2022-10-16T00:27:26;96188.66;;;5.50;70.73
55315;BME280;41619;42.816;23.226;2022-10-16T00:29:52;96192.50;;;5.48;70.59
55315;BME280;41619;42.816;23.226;2022-10-16T00:32:19;96197.94;;;5.48;71.03
55315;BME280;41619;42.816;23.226;2022-10-16T00:34:45;96199.34;;;5.46;70.86
55315;BME280;41619;42.816;23.226;2022-10-16T00:37:10;96191.53;;;5.44;70.75
55315;BME280;41619;42.816;23.226;2022-10-16T00:39:36;96187.53;;;5.42;70.96
55315;BME280;41619;42.816;23.226;2022-10-16T00:42:01;96183.22;;;5.41;71.17
55315;BME280;41619;42.816;23.226;2022-10-16T00:47:15;96191.16;;;5.37;71.03
55315;BME280;41619;42.816;23.226;2022-10-16T00:49:41;96189.88;;;5.35;70.88
55315;BME280;41619;42.816;23.226;2022-10-16T00:52:06;96190.50;;;5.32;70.51
55315;BME280;41619;42.816;23.226;2022-10-16T00:54:33;96184.91;;;5.28;71.06
55315;BME280;41619;42.816;23.226;2022-10-16T00:57:05;96193.69;;;5.25;70.97
55315;BME280;41619;42.816;23.226;2022-10-16T00:59:34;96190.28;;;5.20;71.11
55315;BME280;41619;42.816;23.226;2022-10-16T01:02:00;96193.16;;;5.14;70.74
55315;BME280;41619;42.816;23.226;2022-10-16T01:04:32;96194.91;;;5.10;71.09
55315;BME280;41619;42.816;23.226;2022-10-16T01:10:47;96201.88;;;5.03;70.94
55315;BME280;41619;42.816;23.226;2022-10-16T01:15:37;96205.69;;;5.02;71.42
55315;BME280;41619;42.816;23.226;2022-10-16T01:21:04;96203.13;;;4.97;71.09
55315;BME280;41619;42.816;23.226;2022-10-16T01:23:43;96197.50;;;4.93;71.37
55315;BME280;41619;42.816;23.226;2022-10-16T01:31:34;96190.00;;;4.90;71.23
55315;BME280;41619;42.816;23.226;2022-10-16T01:34:15;96193.81;;;4.89;71.88
55315;BME280;41619;42.816;23.226;2022-10-16T01:36:49;96200.38;;;4.88;71.63
55315;BME280;41619;42.816;23.226;2022-10-16T01:39:20;96201.78;;;4.85;71.09
55315;BME280;41619;42.816;23.226;2022-10-16T01:42:15;96203.19;;;4.83;71.50
55315;BME280;41619;42.816;23.226;2022-10-16T01:44:42;96210.84;;;4.81;71.52
55315;BME280;41619;42.816;23.226;2022-10-16T01:47:10;96213.69;;;4.76;71.65
55315;BME280;41619;42.816;23.226;2022-10-16T01:49:39;96215.41;;;4.72;71.55
55315;BME280;41619;42.816;23.226;2022-10-16T01:52:10;96218.84;;;4.64;71.67
55315;BME280;41619;42.816;23.226;2022-10-16T01:54:40;96220.91;;;4.58;71.62
55315;BME280;41619;42.816;23.226;2022-10-16T01:57:07;96212.59;;;4.54;71.66
55315;BME280;41619;42.816;23.226;2022-10-16T01:59:37;96221.03;;;4.53;71.76
55315;BME280;41619;42.816;23.226;2022-10-16T02:02:07;96220.53;;;4.51;71.75
55315;BME280;41619;42.816;23.226;2022-10-16T02:04:38;96225.16;;;4.50;71.86
55315;BME280;41619;42.816;23.226;2022-10-16T02:07:04;96224.03;;;4.51;71.90
55315;BME280;41619;42.816;23.226;2022-10-16T02:09:33;96228.66;;;4.51;72.25
55315;BME280;41619;42.816;23.226;2022-10-16T02:12:02;96230.56;;;4.50;71.77
55315;BME280;41619;42.816;23.226;2022-10-16T02:14:29;96231.19;;;4.47;72.02
55315;BME280;41619;42.816;23.226;2022-10-16T02:16:55;96225.25;;;4.45;72.29
55315;BME280;41619;42.816;23.226;2022-10-16T02:19:21;96227.78;;;4.42;71.65
55315;BME280;41619;42.816;23.226;2022-10-16T02:21:54;96235.72;;;4.38;71.79
55315;BME280;41619;42.816;23.226;2022-10-16T02:24:35;96230.44;;;4.33;71.99
55315;BME280;41619;42.816;23.226;2022-10-16T02:29:40;96235.75;;;4.24;72.30
55315;BME280;41619;42.816;23.226;2022-10-16T02:32:12;96237.19;;;4.22;72.30
55315;BME280;41619;42.816;23.226;2022-10-16T02:34:39;96242.91;;;4.20;72.25
55315;BME280;41619;42.816;23.226;2022-10-16T02:37:05;96239.22;;;4.16;72.30
55315;BME280;41619;42.816;23.226;2022-10-16T02:39:32;96240.31;;;4.15;72.28
55315;BME280;41619;42.816;23.226;2022-10-16T02:41:59;96243.34;;;4.14;72.34
55315;BME280;41619;42.816;23.226;2022-10-16T02:44:24;96245.56;;;4.12;72.56
55315;BME280;41619;42.816;23.226;2022-10-16T02:46:49;96245.84;;;4.10;72.14
55315;BME280;41619;42.816;23.226;2022-10-16T02:49:15;96247.25;;;4.08;72.44
55315;BME280;41619;42.816;23.226;2022-10-16T02:51:40;96251.56;;;4.09;72.28
55315;BME280;41619;42.816;23.226;2022-10-16T02:54:06;96251.84;;;4.07;72.24
55315;BME280;41619;42.816;23.226;2022-10-16T02:56:31;96253.28;;;4.05;72.52
55315;BME280;41619;42.816;23.226;2022-10-16T02:58:56;96265.22;;;4.04;72.27
55315;BME280;41619;42.816;23.226;2022-10-16T03:01:23;96260.41;;;4.01;72.75
55315;BME280;41619;42.816;23.226;2022-10-16T03:03:49;96256.72;;;3.97;72.64
55315;BME280;41619;42.816;23.226;2022-10-16T03:06:14;96251.09;;;3.93;72.26
55315;BME280;41619;42.816;23.226;2022-10-16T03:08:39;96255.50;;;3.89;72.71
55315;BME280;41619;42.816;23.226;2022-10-16T03:11:05;96249.28;;;3.88;72.82
55315;BME280;41619;42.816;23.226;2022-10-16T03:13:30;96249.09;;;3.85;72.79
55315;BME280;41619;42.816;23.226;2022-10-16T03:15:56;96259.91;;;3.85;72.84
55315;BME280;41619;42.816;23.226;2022-10-16T03:18:21;96255.31;;;3.85;72.73
55315;BME280;41619;42.816;23.226;2022-10-16T03:20:47;96255.13;;;3.82;72.77
55315;BME280;41619;42.816;23.226;2022-10-16T03:23:12;96255.41;;;3.80;72.64
55315;BME280;41619;42.816;23.226;2022-10-16T03:25:37;96255.72;;;3.79;72.57
55315;BME280;41619;42.816;23.226;2022-10-16T03:28:03;96260.63;;;3.77;72.80
55315;BME280;41619;42.816;23.226;2022-10-16T03:30:29;96262.06;;;3.74;72.89
55315;BME280;41619;42.816;23.226;2022-10-16T03:32:54;96266.13;;;3.72;72.94
55315;BME280;41619;42.816;23.226;2022-10-16T03:35:23;96271.56;;;3.72;72.81
55315;BME280;41619;42.816;23.226;2022-10-16T03:37:49;96272.47;;;3.67;73.02
55315;BME280;41619;42.816;23.226;2022-10-16T03:40:15;96272.75;;;3.65;73.06
55315;BME280;41619;42.816;23.226;2022-10-16T03:42:44;96262.75;;;3.66;73.29
55315;BME280;41619;42.816;23.226;2022-10-16T03:45:10;96261.44;;;3.63;73.23
55315;BME280;41619;42.816;23.226;2022-10-16T03:47:36;96256.31;;;3.62;73.07
55315;BME280;41619;42.816;23.226;2022-10-16T03:50:02;96259.63;;;3.59;73.14
55315;BME280;41619;42.816;23.226;2022-10-16T03:52:28;96260.75;;;3.58;73.15
55315;BME280;41619;42.816;23.226;2022-10-16T03:54:53;96268.06;;;3.57;73.23
55315;BME280;41619;42.816;23.226;2022-10-16T03:57:18;96263.44;;;3.58;73.06
55315;BME280;41619;42.816;23.226;2022-10-16T03:59:46;96263.75;;;3.56;73.31
55315;BME280;41619;42.816;23.226;2022-10-16T04:02:12;96272.97;;;3.55;72.98
55315;BME280;41619;42.816;23.226;2022-10-16T04:04:38;96272.47;;;3.53;73.13
55315;BME280;41619;42.816;23.226;2022-10-16T04:07:04;96280.06;;;3.51;73.31
55315;BME280;41619;42.816;23.226;2022-10-16T04:09:29;96275.75;;;3.50;73.04
55315;BME280;41619;42.816;23.226;2022-10-16T04:11:55;96282.56;;;3.48;73.04
55315;BME280;41619;42.816;23.226;2022-10-16T04:14:20;96280.47;;;3.45;73.45
55315;BME280;41619;42.816;23.226;2022-10-16T04:16:46;96278.38;;;3.42;73.58
55315;BME280;41619;42.816;23.226;2022-10-16T04:19:11;96278.47;;;3.37;73.36
55315;BME280;41619;42.816;23.226;2022-10-16T04:21:37;96279.84;;;3.34;73.54
55315;BME280;41619;42.816;23.226;2022-10-16T04:24:03;96275.84;;;3.31;73.40
55315;BME280;41619;42.816;23.226;2022-10-16T04:26:28;96274.53;;;3.29;73.37
55315;BME280;41619;42.816;23.226;2022-10-16T04:28:53;96267.53;;;3.28;73.53
55315;BME280;41619;42.816;23.226;2022-10-16T04:31:19;96276.75;;;3.27;73.21
55315;BME280;41619;42.816;23.226;2022-10-16T04:33:45;96268.13;;;3.25;73.35
55315;BME280;41619;42.816;23.226;2022-10-16T04:36:10;96282.47;;;3.25;73.60
55315;BME280;41619;42.816;23.226;2022-10-16T04:38:35;96281.66;;;3.25;73.34
55315;BME280;41619;42.816;23.226;2022-10-16T04:41:03;96283.56;;;3.24;73.55
55315;BME280;41619;42.816;23.226;2022-10-16T04:43:28;96281.16;;;3.23;73.58
55315;BME280;41619;42.816;23.226;2022-10-16T04:45:54;96288.47;;;3.22;73.23
55315;BME280;41619;42.816;23.226;2022-10-16T04:48:20;96293.06;;;3.22;73.21
55315;BME280;41619;42.816;23.226;2022-10-16T04:50:46;96295.47;;;3.23;73.45
55315;BME280;41619;42.816;23.226;2022-10-16T04:53:11;96290.88;;;3.24;73.51
55315;BME280;41619;42.816;23.226;2022-10-16T04:55:37;96291.69;;;3.24;73.52
55315;BME280;41619;42.816;23.226;2022-10-16T04:58:03;96301.41;;;3.25;73.45
55315;BME280;41619;42.816;23.226;2022-10-16T05:00:29;96304.91;;;3.26;73.16
55315;BME280;41619;42.816;23.226;2022-10-16T05:02:55;96305.69;;;3.26;73.37
55315;BME280;41619;42.816;23.226;2022-10-16T05:05:20;96306.50;;;3.27;73.64
55315;BME280;41619;42.816;23.226;2022-10-16T05:07:49;96305.09;;;3.29;73.78
55315;BME280;41619;42.816;23.226;2022-10-16T05:10:15;96309.09;;;3.32;73.25
55315;BME280;41619;42.816;23.226;2022-10-16T05:12:40;96307.72;;;3.34;73.55
55315;BME280;41619;42.816;23.226;2022-10-16T05:15:06;96313.06;;;3.40;73.74
55315;BME280;41619;42.816;23.226;2022-10-16T05:17:31;96308.94;;;3.42;73.58
55315;BME280;41619;42.816;23.226;2022-10-16T05:19:57;96305.94;;;3.44;73.29
55315;BME280;41619;42.816;23.226;2022-10-16T05:22:22;96316.66;;;3.49;73.17
55315;BME280;41619;42.816;23.226;2022-10-16T05:24:47;96314.94;;;3.53;73.44
55315;BME280;41619;42.816;23.226;2022-10-16T05:27:13;96323.31;;;3.56;73.53
55315;BME280;41619;42.816;23.226;2022-10-16T05:29:48;96326.72;;;3.62;73.35
55315;BME280;41619;42.816;23.226;2022-10-16T05:32:15;96327.09;;;3.69;73.53
55315;BME280;41619;42.816;23.226;2022-10-16T05:34:41;96334.03;;;3.75;73.16
55315;BME280;41619;42.816;23.226;2022-10-16T05:37:06;96346.88;;;3.83;73.39
55315;BME280;41619;42.816;23.226;2022-10-16T05:39:32;96335.38;;;3.91;73.21
55315;BME280;41619;42.816;23.226;2022-10-16T05:41:57;96335.13;;;4.02;73.48
55315;BME280;41619;42.816;23.226;2022-10-16T05:44:23;96341.47;;;4.11;73.22
55315;BME280;41619;42.816;23.226;2022-10-16T05:46:48;96338.22;;;4.22;73.38
55315;BME280;41619;42.816;23.226;2022-10-16T05:49:14;96341.72;;;4.37;73.16
55315;BME280;41619;42.816;23.226;2022-10-16T05:51:39;96342.41;;;4.56;73.10
55315;BME280;41619;42.816;23.226;2022-10-16T05:54:05;96345.84;;;4.84;72.87
55315;BME280;41619;42.816;23.226;2022-10-16T05:56:30;96349.25;;;5.12;72.86
55315;BME280;41619;42.816;23.226;2022-10-16T05:58:56;96354.25;;;5.41;72.24
55315;BME280;41619;42.816;23.226;2022-10-16T06:01:21;96361.75;;;5.75;71.47
55315;BME280;41619;42.816;23.226;2022-10-16T06:03:52;96357.31;;;6.10;71.20
55315;BME280;41619;42.816;23.226;2022-10-16T06:06:22;96355.66;;;6.49;70.78
55315;BME280;41619;42.816;23.226;2022-10-16T06:08:49;96350.44;;;6.87;70.33
55315;BME280;41619;42.816;23.226;2022-10-16T06:11:23;96356.03;;;7.25;69.50
55315;BME280;41619;42.816;23.226;2022-10-16T06:13:55;96358.22;;;7.66;69.59
55315;BME280;41619;42.816;23.226;2022-10-16T06:16:22;96374.75;;;8.08;69.22
55315;BME280;41619;42.816;23.226;2022-10-16T06:18:50;96375.91;;;8.45;68.86
55315;BME280;41619;42.816;23.226;2022-10-16T06:21:18;96382.78;;;8.80;68.35
55315;BME280;41619;42.816;23.226;2022-10-16T06:23:44;96382.06;;;9.13;68.33
55315;BME280;41619;42.816;23.226;2022-10-16T06:26:13;96386.44;;;9.47;67.99
55315;BME280;41619;42.816;23.226;2022-10-16T06:28:39;96380.63;;;9.82;67.87
55315;BME280;41619;42.816;23.226;2022-10-16T06:31:06;96381.78;;;10.26;67.52
55315;BME280;41619;42.816;23.226;2022-10-16T06:33:32;96381.44;;;10.88;68.28
55315;BME280;41619;42.816;23.226;2022-10-16T06:36:03;96381.06;;;12.93;66.18
55315;BME280;41619;42.816;23.226;2022-10-16T06:38:29;96377.81;;;15.44;60.44
55315;BME280;41619;42.816;23.226;2022-10-16T06:40:54;96384.63;;;17.68;54.51
55315;BME280;41619;42.816;23.226;2022-10-16T06:43:19;96378.47;;;19.52;49.35
55315;BME280;41619;42.816;23.226;2022-10-16T06:45:55;96382.66;;;21.21;45.45
55315;BME280;41619;42.816;23.226;2022-10-16T06:48:22;96380.06;;;22.43;42.99
55315;BME280;41619;42.816;23.226;2022-10-16T06:51:18;96382.00;;;23.70;40.64
55315;BME280;41619;42.816;23.226;2022-10-16T06:53:49;96377.00;;;24.57;39.05
55315;BME280;41619;42.816;23.226;2022-10-16T06:56:17;96374.81;;;25.46;38.12
55315;BME280;41619;42.816;23.226;2022-10-16T06:58:44;96378.47;;;26.17;37.16
55315;BME280;41619;42.816;23.226;2022-10-16T07:01:10;96384.28;;;26.90;35.77
55315;BME280;41619;42.816;23.226;2022-10-16T07:03:38;96384.34;;;28.06;34.15
55315;BME280;41619;42.816;23.226;2022-10-16T07:06:05;96379.41;;;28.94;32.68
55315;BME280;41619;42.816;23.226;2022-10-16T07:08:35;96382.91;;;29.75;31.05
55315;BME280;41619;42.816;23.226;2022-10-16T07:11:03;96379.41;;;30.44;29.80
55315;BME280;41619;42.816;23.226;2022-10-16T07:13:28;96383.91;;;31.12;29.07
55315;BME280;41619;42.816;23.226;2022-10-16T07:15:54;96377.44;;;31.68;28.16
55315;BME280;41619;42.816;23.226;2022-10-16T07:18:19;96376.84;;;32.27;26.87
55315;BME280;41619;42.816;23.226;2022-10-16T07:20:45;96389.94;;;32.68;26.26
55315;BME280;41619;42.816;23.226;2022-10-16T07:23:10;96390.09;;;33.09;25.40
55315;BME280;41619;42.816;23.226;2022-10-16T07:25:35;96388.06;;;33.45;24.49
55315;BME280;41619;42.816;23.226;2022-10-16T07:28:01;96385.97;;;34.00;24.00
55315;BME280;41619;42.816;23.226;2022-10-16T07:30:26;96376.84;;;34.37;23.30
55315;BME280;41619;42.816;23.226;2022-10-16T07:32:52;96375.38;;;34.73;23.00
55315;BME280;41619;42.816;23.226;2022-10-16T07:35:17;96379.66;;;35.20;22.22
55315;BME280;41619;42.816;23.226;2022-10-16T07:37:46;96376.28;;;35.22;21.45
55315;BME280;41619;42.816;23.226;2022-10-16T07:40:12;96373.91;;;35.52;21.18
55315;BME280;41619;42.816;23.226;2022-10-16T07:42:38;96379.47;;;35.72;20.56
55315;BME280;41619;42.816;23.226;2022-10-16T07:45:03;96380.66;;;35.55;20.54
55315;BME280;41619;42.816;23.226;2022-10-16T07:47:29;96374.53;;;35.73;20.17
55315;BME280;41619;42.816;23.226;2022-10-16T07:49:54;96372.34;;;36.05;19.29
55315;BME280;41619;42.816;23.226;2022-10-16T07:52:20;96380.16;;;36.21;19.29
55315;BME280;41619;42.816;23.226;2022-10-16T07:54:45;96375.44;;;36.07;19.11
55315;BME280;41619;42.816;23.226;2022-10-16T07:57:10;96373.88;;;36.06;19.07
55315;BME280;41619;42.816;23.226;2022-10-16T07:59:36;96376.78;;;36.17;19.02
55315;BME280;41619;42.816;23.226;2022-10-16T08:02:01;96382.81;;;36.36;18.45
55315;BME280;41619;42.816;23.226;2022-10-16T08:04:26;96376.06;;;36.28;18.05
55315;BME280;41619;42.816;23.226;2022-10-16T08:06:52;96374.72;;;36.12;18.22
55315;BME280;41619;42.816;23.226;2022-10-16T08:09:19;96372.84;;;35.98;18.12
55315;BME280;41619;42.816;23.226;2022-10-16T08:11:44;96377.81;;;36.14;18.02
55315;BME280;41619;42.816;23.226;2022-10-16T08:14:10;96361.34;;;36.57;17.85
55315;BME280;41619;42.816;23.226;2022-10-16T08:16:35;96366.53;;;36.76;17.41
55315;BME280;41619;42.816;23.226;2022-10-16T08:19:00;96358.31;;;35.90;17.64
55315;BME280;41619;42.816;23.226;2022-10-16T08:21:26;96371.09;;;33.85;18.52
55315;BME280;41619;42.816;23.226;2022-10-16T08:23:53;96363.00;;;32.43;19.36
55315;BME280;41619;42.816;23.226;2022-10-16T08:26:18;96359.63;;;32.01;20.00
55315;BME280;41619;42.816;23.226;2022-10-16T08:28:44;96366.53;;;32.00;19.88
55315;BME280;41619;42.816;23.226;2022-10-16T08:31:11;96357.06;;;32.03;19.86
55315;BME280;41619;42.816;23.226;2022-10-16T08:33:38;96365.31;;;32.45;19.58
55315;BME280;41619;42.816;23.226;2022-10-16T08:36:05;96355.22;;;33.03;19.28
55315;BME280;41619;42.816;23.226;2022-10-16T08:38:31;96362.09;;;32.96;18.88
55315;BME280;41619;42.816;23.226;2022-10-16T08:41:08;96361.50;;;32.63;18.77
55315;BME280;41619;42.816;23.226;2022-10-16T08:44:07;96348.22;;;30.90;20.04
55315;BME280;41619;42.816;23.226;2022-10-16T08:49:13;96353.53;;;26.48;23.40
55315;BME280;41619;42.816;23.226;2022-10-16T08:51:39;96358.81;;;24.65;25.04
55315;BME280;41619;42.816;23.226;2022-10-16T08:54:06;96363.09;;;23.54;26.63
55315;BME280;41619;42.816;23.226;2022-10-16T08:56:36;96362.66;;;22.62;27.52
55315;BME280;41619;42.816;23.226;2022-10-16T08:59:10;96360.19;;;21.80;28.70
55315;BME280;41619;42.816;23.226;2022-10-16T09:01:43;96365.91;;;21.28;29.05
55315;BME280;41619;42.816;23.226;2022-10-16T09:10:43;96361.28;;;19.93;31.26
55315;BME280;41619;42.816;23.226;2022-10-16T09:13:29;96355.00;;;19.78;31.59
55315;BME280;41619;42.816;23.226;2022-10-16T09:16:24;96369.69;;;19.75;31.72
55315;BME280;41619;42.816;23.226;2022-10-16T09:19:20;96361.41;;;19.50;32.17
55315;BME280;41619;42.816;23.226;2022-10-16T09:21:49;96371.72;;;19.46;32.48
55315;BME280;41619;42.816;23.226;2022-10-16T09:24:18;96367.72;;;19.69;32.74
55315;BME280;41619;42.816;23.226;2022-10-16T09:26:45;96370.28;;;20.18;33.06
55315;BME280;41619;42.816;23.226;2022-10-16T09:29:14;96363.97;;;21.25;32.87
55315;BME280;41619;42.816;23.226;2022-10-16T09:31:40;96358.22;;;23.15;30.93
55315;BME280;41619;42.816;23.226;2022-10-16T09:34:20;96350.47;;;25.14;28.41
55315;BME280;41619;42.816;23.226;2022-10-16T09:36:48;96354.19;;;26.91;27.42
55315;BME280;41619;42.816;23.226;2022-10-16T09:39:14;96351.97;;;28.46;25.39
55315;BME280;41619;42.816;23.226;2022-10-16T09:41:42;96355.50;;;28.68;24.60
55315;BME280;41619;42.816;23.226;2022-10-16T09:44:24;96349.38;;;29.96;23.85
55315;BME280;41619;42.816;23.226;2022-10-16T09:47:04;96350.50;;;31.01;22.56
55315;BME280;41619;42.816;23.226;2022-10-16T09:49:30;96344.50;;;31.08;22.43
55315;BME280;41619;42.816;23.226;2022-10-16T09:52:14;96344.66;;;31.38;21.42
55315;BME280;41619;42.816;23.226;2022-10-16T09:54:54;96336.72;;;31.51;20.81
55315;BME280;41619;42.816;23.226;2022-10-16T09:57:21;96342.13;;;31.63;20.66
55315;BME280;41619;42.816;23.226;2022-10-16T09:59:54;96339.59;;;30.24;20.71
55315;BME280;41619;42.816;23.226;2022-10-16T10:02:29;96346.81;;;28.00;22.90
55315;BME280;41619;42.816;23.226;2022-10-16T10:04:55;96339.81;;;26.50;23.91
55315;BME280;41619;42.816;23.226;2022-10-16T10:07:32;96326.31;;;25.49;25.20
55315;BME280;41619;42.816;23.226;2022-10-16T10:10:00;96327.34;;;24.25;25.93
55315;BME280;41619;42.816;23.226;2022-10-16T10:12:31;96320.59;;;23.67;27.36
55315;BME280;41619;42.816;23.226;2022-10-16T10:17:31;96326.84;;;26.15;26.24
55315;BME280;41619;42.816;23.226;2022-10-16T10:20:22;96324.88;;;28.17;24.15
55315;BME280;41619;42.816;23.226;2022-10-16T10:22:48;96315.91;;;29.12;23.46
55315;BME280;41619;42.816;23.226;2022-10-16T10:25:19;96318.09;;;30.27;22.07
55315;BME280;41619;42.816;23.226;2022-10-16T10:30:23;96307.31;;;31.72;20.15
55315;BME280;41619;42.816;23.226;2022-10-16T10:51:58;96291.00;;;23.06;26.17
55315;BME280;41619;42.816;23.226;2022-10-16T10:57:10;96275.38;;;22.62;27.04
55315;BME280;41619;42.816;23.226;2022-10-16T11:02:31;96272.38;;;22.49;26.97
55315;BME280;41619;42.816;23.226;2022-10-16T11:08:02;96268.25;;;22.07;27.34
55315;BME280;41619;42.816;23.226;2022-10-16T11:10:53;96266.50;;;21.90;27.39
55315;BME280;41619;42.816;23.226;2022-10-16T11:15:53;96263.75;;;21.25;28.03
55315;BME280;41619;42.816;23.226;2022-10-16T11:18:32;96260.97;;;21.25;28.50
55315;BME280;41619;42.816;23.226;2022-10-16T11:21:10;96269.16;;;21.02;28.26
55315;BME280;41619;42.816;23.226;2022-10-16T11:23:59;96263.78;;;20.80;28.37
55315;BME280;41619;42.816;23.226;2022-10-16T11:26:33;96262.81;;;20.56;28.76
55315;BME280;41619;42.816;23.226;2022-10-16T11:29:02;96258.38;;;20.63;29.00
55315;BME280;41619;42.816;23.226;2022-10-16T11:31:39;96261.03;;;20.77;28.91
55315;BME280;41619;42.816;23.226;2022-10-16T11:34:13;96258.00;;;20.61;29.06
55315;BME280;41619;42.816;23.226;2022-10-16T11:49:32;96255.41;;;21.56;28.98
55315;BME280;41619;42.816;23.226;2022-10-16T11:52:24;96256.44;;;21.69;28.47
55315;BME280;41619;42.816;23.226;2022-10-16T11:57:47;96259.34;;;21.28;28.59
55315;BME280;41619;42.816;23.226;2022-10-16T12:00:25;96256.97;;;21.26;28.88
55315;BME280;41619;42.816;23.226;2022-10-16T12:08:10;96251.94;;;21.48;28.27
55315;BME280;41619;42.816;23.226;2022-10-16T12:10:38;96254.19;;;21.26;28.05
55315;BME280;41619;42.816;23.226;2022-10-16T12:13:25;96248.69;;;21.15;28.74
55315;BME280;41619;42.816;23.226;2022-10-16T12:15:50;96247.28;;;21.00;28.86
55315;BME280;41619;42.816;23.226;2022-10-16T12:18:23;96250.00;;;21.07;28.45
55315;BME280;41619;42.816;23.226;2022-10-16T12:20:56;96247.84;;;21.22;27.68
55315;BME280;41619;42.816;23.226;2022-10-16T12:23:24;96253.59;;;21.42;27.36
55315;BME280;41619;42.816;23.226;2022-10-16T12:25:59;96250.19;;;21.61;26.72
55315;BME280;41619;42.816;23.226;2022-10-16T12:28:29;96250.00;;;21.72;27.51
55315;BME280;41619;42.816;23.226;2022-10-16T12:31:03;96255.03;;;21.84;27.03
55315;BME280;41619;42.816;23.226;2022-10-16T12:33:36;96254.09;;;21.94;26.53
55315;BME280;41619;42.816;23.226;2022-10-16T12:36:32;96251.19;;;22.01;25.77
55315;BME280;41619;42.816;23.226;2022-10-16T12:39:00;96245.97;;;22.07;25.66
55315;BME280;41619;42.816;23.226;2022-10-16T12:41:27;96240.31;;;22.14;25.11
55315;BME280;41619;42.816;23.226;2022-10-16T12:43:53;96241.81;;;22.19;25.17
55315;BME280;41619;42.816;23.226;2022-10-16T12:46:23;96243.81;;;22.18;25.20
55315;BME280;41619;42.816;23.226;2022-10-16T12:48:49;96243.81;;;22.18;24.88
55315;BME280;41619;42.816;23.226;2022-10-16T12:54:34;96253.56;;;22.30;24.33
55315;BME280;41619;42.816;23.226;2022-10-16T13:10:55;96259.53;;;22.05;24.37
55315;BME280;41619;42.816;23.226;2022-10-16T13:21:51;96264.31;;;22.04;24.56
55315;BME280;41619;42.816;23.226;2022-10-16T13:26:59;96262.56;;;21.87;24.91
55315;BME280;41619;42.816;23.226;2022-10-16T13:29:31;96260.09;;;21.62;25.15
55315;BME280;41619;42.816;23.226;2022-10-16T13:31:59;96265.38;;;21.53;25.25
55315;BME280;41619;42.816;23.226;2022-10-16T13:34:26;96269.88;;;21.43;25.48
55315;BME280;41619;42.816;23.226;2022-10-16T13:36:53;96262.78;;;21.39;25.61
55315;BME280;41619;42.816;23.226;2022-10-16T13:39:26;96272.38;;;21.34;25.57
55315;BME280;41619;42.816;23.226;2022-10-16T13:42:05;96273.94;;;21.35;25.68
55315;BME280;41619;42.816;23.226;2022-10-16T13:44:39;96275.03;;;21.45;25.55
55315;BME280;41619;42.816;23.226;2022-10-16T13:47:05;96272.03;;;21.63;25.65
55315;BME280;41619;42.816;23.226;2022-10-16T13:49:30;96268.94;;;21.57;25.33
55315;BME280;41619;42.816;23.226;2022-10-16T13:51:57;96273.16;;;21.35;25.53
55315;BME280;41619;42.816;23.226;2022-10-16T13:54:24;96279.66;;;21.21;25.78
55315;BME280;41619;42.816;23.226;2022-10-16T13:56:50;96281.25;;;21.18;25.82
55315;BME280;41619;42.816;23.226;2022-10-16T13:59:35;96282.03;;;21.26;26.04
55315;BME280;41619;42.816;23.226;2022-10-16T14:04:42;96282.31;;;20.94;26.60
55315;BME280;41619;42.816;23.226;2022-10-16T14:07:14;96288.16;;;20.66;26.94
55315;BME280;41619;42.816;23.226;2022-10-16T14:09:41;96287.94;;;20.39;27.34
55315;BME280;41619;42.816;23.226;2022-10-16T14:12:10;96287.28;;;20.20;28.07
55315;BME280;41619;42.816;23.226;2022-10-16T14:14:42;96294.50;;;20.07;28.19
55315;BME280;41619;42.816;23.226;2022-10-16T14:17:15;96293.09;;;19.81;28.40
55315;BME280;41619;42.816;23.226;2022-10-16T14:19:46;96287.63;;;19.60;28.87
55315;BME280;41619;42.816;23.226;2022-10-16T14:24:59;96297.66;;;19.15;29.34
55315;BME280;41619;42.816;23.226;2022-10-16T14:27:34;96300.88;;;18.92;29.95
55315;BME280;41619;42.816;23.226;2022-10-16T14:30:12;96295.38;;;18.74;30.43
55315;BME280;41619;42.816;23.226;2022-10-16T14:32:40;96304.06;;;18.62;30.26
55315;BME280;41619;42.816;23.226;2022-10-16T14:35:26;96300.13;;;18.45;30.80
55315;BME280;41619;42.816;23.226;2022-10-16T14:37:53;96298.53;;;18.26;30.85
55315;BME280;41619;42.816;23.226;2022-10-16T14:40:21;96309.97;;;18.14;31.36
55315;BME280;41619;42.816;23.226;2022-10-16T14:42:48;96305.59;;;18.02;31.25
55315;BME280;41619;42.816;23.226;2022-10-16T14:45:19;96303.63;;;17.92;31.82
55315;BME280;41619;42.816;23.226;2022-10-16T14:47:51;96312.28;;;17.83;31.99
55315;BME280;41619;42.816;23.226;2022-10-16T14:50:17;96315.03;;;17.73;31.90
55315;BME280;41619;42.816;23.226;2022-10-16T14:52:42;96318.09;;;17.61;32.13
55315;BME280;41619;42.816;23.226;2022-10-16T14:55:09;96321.25;;;17.48;32.41
55315;BME280;41619;42.816;23.226;2022-10-16T14:57:37;96327.91;;;17.40;32.39
55315;BME280;41619;42.816;23.226;2022-10-16T15:00:13;96327.88;;;17.30;32.66
55315;BME280;41619;42.816;23.226;2022-10-16T15:02:40;96333.75;;;17.21;33.00